createdAt,value
2022-08-12T00:02:08.851Z,98798.06
2022-08-12T00:04:56.163Z,98796.75
2022-08-12T00:07:43.922Z,98800.53
2022-08-12T00:10:30.894Z,98806.38
2022-08-12T00:13:17.586Z,98810.16
2022-08-12T00:16:05.636Z,98815.25
2022-08-12T00:18:52.432Z,98826.72
2022-08-12T00:21:40.100Z,98824.16
2022-08-12T00:24:28.482Z,98837.66
2022-08-12T00:27:16.750Z,98836.38
2022-08-12T00:30:03.964Z,98842.25
2022-08-12T00:32:54.877Z,98840.69
2022-08-12T00:35:44.377Z,98846.56
2022-08-12T00:38:31.745Z,98850.88
2022-08-12T00:41:19.614Z,98858.03
2022-08-12T00:43:49.974Z,98860.28
2022-08-12T00:46:37.625Z,98862.03
2022-08-12T00:49:07.487Z,98868.63
2022-08-12T00:51:59.034Z,98875.75
2022-08-12T00:54:27.935Z,98876.53
2022-08-12T00:57:05.228Z,98883.66
2022-08-12T00:59:35.223Z,98878.25
2022-08-12T01:02:12.029Z,98884.63
2022-08-12T01:05:02.620Z,98883.34
2022-08-12T01:07:51.960Z,98886.38
2022-08-12T01:10:38.471Z,98891.47
2022-08-12T01:13:19.019Z,98891.94
2022-08-12T01:15:55.476Z,98885.78
2022-08-12T01:18:27.591Z,98891.09
2022-08-12T01:21:18.662Z,98898.44
2022-08-12T01:24:31.236Z,98896.59
2022-08-12T01:27:07.930Z,98910.13
2022-08-12T01:29:43.616Z,98912.63
2022-08-12T01:32:15.405Z,98917.94
2022-08-12T01:35:06.625Z,98918.91
2022-08-12T01:37:57.363Z,98922.69
2022-08-12T01:40:35.057Z,98926.53
2022-08-12T01:43:11.886Z,98929.56
2022-08-12T01:45:57.523Z,98933.88
2022-08-12T01:48:51.487Z,98930.75
2022-08-12T01:52:21.508Z,98937.88
2022-08-12T01:54:43.199Z,98932.50
2022-08-12T01:57:59.398Z,98945.25
2022-08-12T02:00:20.870Z,98949.56
2022-08-12T02:03:56.228Z,98950.88
2022-08-12T02:07:02.568Z,98957.25
2022-08-12T02:10:10.398Z,98961.59
2022-08-12T02:13:17.060Z,98966.44
2022-08-12T02:16:15.507Z,98979.22
2022-08-12T02:19:13.134Z,98982.03
2022-08-12T02:22:09.367Z,98986.38
2022-08-12T02:24:40.249Z,98990.72
2022-08-12T02:27:11.197Z,98997.09
2022-08-12T02:29:41.788Z,98989.63
2022-08-12T02:32:11.237Z,98993.97
2022-08-12T02:34:40.548Z,98997.00
2022-08-12T02:37:11.519Z,99000.03
2022-08-12T02:39:46.260Z,98999.22
2022-08-12T02:42:18.526Z,98993.50
2022-08-12T02:44:50.438Z,98997.72
2022-08-12T02:47:58.585Z,99001.19
2022-08-12T02:50:13.553Z,99008.03
2022-08-12T02:52:43.156Z,99004.91
2022-08-12T02:55:28.327Z,99004.06
2022-08-12T02:58:09.227Z,99005.78
2022-08-12T03:00:43.023Z,99006.22
2022-08-12T03:03:14.030Z,99013.59
2022-08-12T03:05:59.851Z,99012.50
2022-08-12T03:08:33.395Z,99012.97
2022-08-12T03:11:14.600Z,99014.16
2022-08-12T03:14:07.894Z,99018.97
2022-08-12T03:16:40.534Z,99020.91
2022-08-12T03:19:10.214Z,99021.56
2022-08-12T03:22:05.777Z,99019.94
2022-08-12T03:24:29.384Z,99017.78
2022-08-12T03:27:00.203Z,99019.53
2022-08-12T03:29:46.991Z,99022.56
2022-08-12T03:32:35.573Z,99034.25
2022-08-12T03:35:08.726Z,99027.75
2022-08-12T03:38:03.562Z,99022.53
2022-08-12T03:41:19.968Z,99033.69
2022-08-12T03:44:49.018Z,99029.50
2022-08-12T03:47:50.622Z,99036.00
2022-08-12T03:50:38.195Z,99027.00
2022-08-12T03:53:31.353Z,99028.19
2022-08-12T03:56:18.323Z,99030.66
2022-08-12T03:59:05.984Z,99034.47
2022-08-12T04:01:40.827Z,99026.00
2022-08-12T04:04:11.765Z,99038.03
2022-08-12T04:06:48.120Z,99032.19
2022-08-12T04:09:20.010Z,99033.72
2022-08-12T04:12:07.101Z,99034.25
2022-08-12T04:14:36.513Z,99031.22
2022-08-12T04:17:06.073Z,99043.59
2022-08-12T04:19:34.624Z,99036.97
2022-08-12T04:22:03.776Z,99028.09
2022-08-12T04:24:36.803Z,99032.00
2022-08-12T04:27:13.630Z,99028.22
2022-08-12T04:30:30.340Z,99028.50
2022-08-12T04:32:33.131Z,99030.34
2022-08-12T04:35:02.281Z,99024.50
2022-08-12T04:37:58.563Z,99027.63
2022-08-12T04:40:27.871Z,99027.41
2022-08-12T04:42:58.389Z,99022.88
2022-08-12T04:45:26.932Z,99027.22
2022-08-12T04:47:55.892Z,99015.72
2022-08-12T04:50:35.230Z,99017.78
2022-08-12T04:53:09.644Z,99012.69
2022-08-12T04:55:43.543Z,99008.56
2022-08-12T04:58:14.802Z,99014.00
2022-08-12T05:00:43.675Z,99013.44
2022-08-12T05:03:12.256Z,99011.94
2022-08-12T05:05:41.746Z,99016.81
2022-08-12T05:08:18.381Z,99008.38
2022-08-12T05:10:48.685Z,99011.19
2022-08-12T05:13:31.828Z,99001.00
2022-08-12T05:16:05.266Z,99002.50
2022-08-12T05:18:40.644Z,98991.78
2022-08-12T05:21:14.511Z,98997.97
2022-08-12T05:23:43.966Z,98990.28
2022-08-12T05:26:12.576Z,98989.53
2022-08-12T05:28:42.340Z,98986.69
2022-08-12T05:31:10.846Z,98985.41
2022-08-12T05:33:41.191Z,98977.16
2022-08-12T05:36:13.823Z,98980.75
2022-08-12T05:38:59.599Z,98975.31
2022-08-12T05:41:34.235Z,98978.13
2022-08-12T05:44:13.732Z,98975.53
2022-08-12T05:46:42.553Z,98968.38
2022-08-12T05:49:11.215Z,98965.56
2022-08-12T05:51:41.863Z,98966.31
2022-08-12T05:54:12.391Z,98964.28
2022-08-12T05:56:42.346Z,98969.91
2022-08-12T05:59:13.993Z,98964.28
2022-08-12T06:02:08.742Z,98964.81
2022-08-12T06:04:32.866Z,98963.09
2022-08-12T06:07:40.030Z,98955.19
2022-08-12T06:09:57.724Z,98950.09
2022-08-12T06:12:26.364Z,98949.13
2022-08-12T06:14:56.233Z,98939.38
2022-08-12T06:17:24.797Z,98930.72
2022-08-12T06:20:27.099Z,98919.44
2022-08-12T06:22:42.723Z,98925.59
2022-08-12T06:25:17.630Z,98913.56
2022-08-12T06:28:06.824Z,98908.19
2022-08-12T06:30:39.535Z,98904.06
2022-08-12T06:33:59.684Z,98902.75
2022-08-12T06:36:05.056Z,98888.13
2022-08-12T06:38:38.962Z,98888.34
2022-08-12T06:41:26.812Z,98885.53
2022-08-12T06:44:05.938Z,98877.28
2022-08-12T06:46:38.046Z,98870.56
2022-08-12T06:49:07.889Z,98869.25
2022-08-12T06:51:36.512Z,98859.72
2022-08-12T06:54:05.300Z,98851.47
2022-08-12T06:57:03.145Z,98844.53
2022-08-12T06:59:22.458Z,98843.44
2022-08-12T07:01:51.998Z,98839.53
2022-08-12T07:04:39.031Z,98834.88
2022-08-12T07:07:10.316Z,98833.28
2022-08-12T07:10:00.107Z,98833.47
2022-08-12T07:12:29.443Z,98840.81
2022-08-12T07:15:02.812Z,98845.91
2022-08-12T07:17:36.930Z,98824.88
2022-08-12T07:20:09.911Z,98832.59
2022-08-12T07:22:40.155Z,98824.13
2022-08-12T07:25:27.558Z,98819.81
2022-08-12T07:27:57.014Z,98821.09
2022-08-12T07:30:26.137Z,98822.41
2022-08-12T07:32:58.607Z,98816.56
2022-08-12T07:35:31.404Z,98815.81
2022-08-12T07:38:01.895Z,98818.44
2022-08-12T07:40:31.458Z,98822.31
2022-08-12T07:43:00.499Z,98818.50
2022-08-12T07:45:29.109Z,98818.09
2022-08-12T07:47:57.688Z,98820.50
2022-08-12T07:50:26.652Z,98823.66
2022-08-12T07:52:55.370Z,98821.72
2022-08-12T07:55:24.072Z,98826.94
2022-08-12T07:58:00.314Z,98819.59
2022-08-12T08:00:32.758Z,98812.19
2022-08-12T08:03:02.119Z,98820.44
2022-08-12T08:05:51.950Z,98821.19
2022-08-12T08:08:28.017Z,98817.63
2022-08-12T08:11:19.449Z,98809.19
2022-08-12T08:13:50.025Z,98814.06
2022-08-12T08:16:18.638Z,98813.28
2022-08-12T08:18:47.298Z,98799.78
2022-08-12T08:21:16.750Z,98803.88
2022-08-12T08:24:05.222Z,98798.03
2022-08-12T08:26:34.160Z,98793.94
2022-08-12T08:29:02.792Z,98792.41
2022-08-12T08:31:32.881Z,98789.06
2022-08-12T08:34:47.242Z,98783.41
2022-08-12T08:36:51.503Z,98787.75
2022-08-12T08:39:23.274Z,98787.75
2022-08-12T08:42:18.109Z,98789.25
2022-08-12T08:44:49.741Z,98792.84
2022-08-12T08:47:28.316Z,98787.41
2022-08-12T08:50:02.012Z,98793.78
2022-08-12T08:52:40.084Z,98790.44
2022-08-12T08:55:22.190Z,98791.22
2022-08-12T08:57:56.016Z,98798.34
2022-08-12T09:00:24.694Z,98795.31
2022-08-12T09:02:58.679Z,98795.31
2022-08-12T09:05:42.988Z,98799.97
2022-08-12T09:08:27.970Z,98799.00
2022-08-12T09:12:07.110Z,98806.28
2022-08-12T09:14:11.089Z,98803.25
2022-08-12T09:16:42.930Z,98796.66
2022-08-12T09:19:27.137Z,98801.75
2022-08-12T09:24:47.110Z,98801.00
2022-08-12T09:27:18.531Z,98801.00
2022-08-12T09:30:08.949Z,98796.13
2022-08-12T09:33:03.888Z,98794.59
2022-08-12T09:35:42.947Z,98796.13
2022-08-12T09:38:28.613Z,98796.88
2022-08-12T09:42:09.308Z,98799.69
2022-08-12T09:44:16.869Z,98802.50
2022-08-12T09:46:56.516Z,98804.56
2022-08-12T09:49:28.240Z,98796.13
2022-08-12T09:51:58.287Z,98805.31
2022-08-12T09:54:33.454Z,98801.97
2022-08-12T09:58:45.162Z,98799.69
2022-08-12T10:00:19.517Z,98801.97
2022-08-12T10:03:32.204Z,98808.34
2022-08-12T10:06:26.294Z,98809.09
2022-08-12T10:08:52.525Z,98811.16
2022-08-12T10:12:11.723Z,98819.06
2022-08-12T10:14:33.329Z,98820.56
2022-08-12T10:17:08.830Z,98816.44
2022-08-12T10:19:41.903Z,98817.97
2022-08-12T10:22:39.495Z,98813.84
2022-08-12T10:26:18.550Z,98823.03
2022-08-12T10:28:39.266Z,98815.56
2022-08-12T10:31:16.478Z,98814.81
2022-08-12T10:34:05.220Z,98822.50
2022-08-12T10:36:40.035Z,98828.13
2022-08-12T10:40:01.271Z,98829.44
2022-08-12T10:42:29.467Z,98835.63
2022-08-12T10:45:14.202Z,98841.03
2022-08-12T10:48:19.069Z,98837.25
2022-08-12T10:50:58.300Z,98841.38
2022-08-12T10:53:43.716Z,98836.28
2022-08-12T10:56:17.729Z,98839.66
2022-08-12T10:58:47.708Z,98840.19
2022-08-12T11:03:01.448Z,98846.38
2022-08-12T11:04:22.486Z,98845.41
2022-08-12T11:07:05.444Z,98847.47
2022-08-12T11:09:59.910Z,98851.38
2022-08-12T11:12:57.852Z,98857.53
2022-08-12T11:15:33.539Z,98855.03
2022-08-12T11:18:18.468Z,98853.50
2022-08-12T11:20:50.574Z,98858.19
2022-08-12T11:23:25.230Z,98857.72
2022-08-12T11:26:07.579Z,98873.09
2022-08-12T11:28:38.307Z,98874.19
2022-08-12T11:31:12.221Z,98869.09
2022-08-12T11:34:05.857Z,98878.06
2022-08-12T11:36:33.310Z,98881.22
2022-08-12T11:39:08.169Z,98889.44
2022-08-12T11:41:43.076Z,98894.09
2022-08-12T11:44:37.057Z,98893.13
2022-08-12T11:47:00.452Z,98901.88
2022-08-12T11:49:32.755Z,98893.75
2022-08-12T11:52:17.482Z,98897.84
2022-08-12T11:54:54.623Z,98898.19
2022-08-12T11:58:09.448Z,98894.41
2022-08-12T12:03:03.333Z,98909.53
2022-08-12T12:05:41.533Z,98922.63
2022-08-12T12:08:38.801Z,98920.13
2022-08-12T12:11:10.363Z,98921.97
2022-08-12T12:14:08.298Z,98917.66
2022-08-12T12:16:27.456Z,98927.38
2022-08-12T12:18:58.667Z,98927.13
2022-08-12T12:21:47.257Z,98930.72
2022-08-12T12:24:20.889Z,98935.56
2022-08-12T12:26:59.653Z,98934.81
2022-08-12T12:30:19.273Z,98940.44
2022-08-12T12:32:29.167Z,98943.78
2022-08-12T12:35:14.619Z,98944.31
2022-08-12T12:38:05.611Z,98949.72
2022-08-12T12:40:43.883Z,98948.22
2022-08-12T12:43:14.285Z,98950.28
2022-08-12T12:45:45.937Z,98952.31
2022-08-12T12:48:20.443Z,98954.38
2022-08-12T12:51:10.134Z,98958.47
2022-08-12T12:54:08.162Z,98952.63
2022-08-12T12:56:34.536Z,98965.16
2022-08-12T12:59:07.145Z,98963.63
2022-08-12T13:01:55.939Z,98974.13
2022-08-12T13:04:25.636Z,98981.81
2022-08-12T13:06:55.855Z,98986.88
2022-08-12T13:09:24.378Z,98988.94
2022-08-12T13:11:54.006Z,98986.13
2022-08-12T13:14:28.953Z,98994.56
2022-08-12T13:17:03.415Z,98998.91
2022-08-12T13:19:45.089Z,99000.19
2022-08-12T13:22:19.644Z,99011.44
2022-08-12T13:24:56.014Z,99015.00
2022-08-12T13:27:38.321Z,99021.38
2022-08-12T13:30:13.561Z,99025.75
2022-08-12T13:32:56.684Z,99020.13
2022-08-12T13:35:33.345Z,99024.19
2022-08-12T13:38:26.673Z,99021.38
2022-08-12T13:41:11.258Z,99029.06
2022-08-12T13:43:41.808Z,99038.78
2022-08-12T13:46:15.231Z,99041.59
2022-08-12T13:48:44.656Z,99042.38
2022-08-12T13:51:21.009Z,99048.75
2022-08-12T13:53:58.910Z,99061.28
2022-08-12T13:56:37.878Z,99062.81
2022-08-12T13:59:13.019Z,99067.66
2022-08-12T14:01:42.915Z,99075.34
2022-08-12T14:04:12.386Z,99080.97
2022-08-12T14:06:43.442Z,99087.34
2022-08-12T14:09:17.437Z,99091.47
2022-08-12T14:11:58.639Z,99095.03
2022-08-12T14:14:31.748Z,99102.72
2022-08-12T14:17:10.811Z,99104.75
2022-08-12T14:20:01.278Z,99108.88
2022-08-12T14:22:31.650Z,99114.47
2022-08-12T14:25:09.138Z,99115.25
2022-08-12T14:28:06.057Z,99119.56
2022-08-12T14:30:29.598Z,99126.50
2022-08-12T14:33:00.608Z,99126.50
2022-08-12T14:35:29.170Z,99123.69
2022-08-12T14:38:26.327Z,99125.19
2022-08-12T14:41:00.952Z,99130.81
2022-08-12T14:44:04.979Z,99128.00
2022-08-12T14:46:38.036Z,99129.31
2022-08-12T14:49:11.427Z,99130.81
2022-08-12T14:52:44.025Z,99133.63
2022-08-12T14:56:59.516Z,99133.63
2022-08-12T14:58:00.514Z,99132.13
2022-08-12T15:00:52.358Z,99140.56
2022-08-12T15:03:53.075Z,99143.38
2022-08-12T15:06:44.120Z,99148.22
2022-08-12T15:09:12.110Z,99143.13
2022-08-12T15:11:48.924Z,99144.44
2022-08-12T15:14:30.135Z,99151.34
2022-08-12T15:17:00.779Z,99150.59
2022-08-12T15:20:10.792Z,99161.06
2022-08-12T15:22:39.316Z,99158.25
2022-08-12T15:25:09.989Z,99168.50
2022-08-12T15:28:04.199Z,99164.94
2022-08-12T15:30:37.210Z,99169.81
2022-08-12T15:33:12.847Z,99179.00
2022-08-12T15:35:53.175Z,99188.72
2022-08-12T15:38:28.323Z,99193.59
2022-08-12T15:40:59.841Z,99188.47
2022-08-12T15:44:16.605Z,99186.41
2022-08-12T15:46:25.611Z,99180.56
2022-08-12T15:48:54.414Z,99177.75
2022-08-12T15:51:58.090Z,99177.00
2022-08-12T15:54:34.057Z,99176.22
2022-08-12T15:57:07.780Z,99174.72
2022-08-12T16:00:03.759Z,99164.75
2022-08-12T16:02:29.905Z,99164.75
2022-08-12T16:04:59.192Z,99163.25
2022-08-12T16:07:30.228Z,99163.78
2022-08-12T16:10:07.038Z,99154.56
2022-08-12T16:12:55.177Z,99149.50
2022-08-12T16:15:29.516Z,99147.22
2022-08-12T16:18:14.696Z,99156.16
2022-08-12T16:20:48.899Z,99151.84
2022-08-12T16:23:36.184Z,99148.78
2022-08-12T16:26:15.145Z,99143.72
2022-08-12T16:28:47.121Z,99142.72
2022-08-12T16:31:23.485Z,99141.97
2022-08-12T16:33:59.921Z,99140.22
2022-08-12T16:36:30.961Z,99135.88
2022-08-12T16:39:02.124Z,99137.16
2022-08-12T16:41:37.819Z,99127.22
2022-08-12T16:44:08.344Z,99122.84
2022-08-12T16:46:38.250Z,99125.44
2022-08-12T16:49:13.076Z,99121.09
2022-08-12T16:51:47.478Z,99118.31
2022-08-12T16:54:19.471Z,99112.44
2022-08-12T16:56:55.352Z,99112.22
2022-08-12T16:59:52.950Z,99120.66
2022-08-12T17:02:33.388Z,99105.63
2022-08-12T17:05:07.412Z,99106.13
2022-08-12T17:07:43.576Z,99099.00
2022-08-12T17:10:18.321Z,99103.09
2022-08-12T17:13:09.439Z,99100.06
2022-08-12T17:15:56.940Z,99100.59
2022-08-12T17:18:43.851Z,99089.88
2022-08-12T17:21:41.277Z,99091.69
2022-08-12T17:24:15.925Z,99090.94
2022-08-12T17:26:49.203Z,99090.19
2022-08-12T17:29:24.210Z,99082.78
2022-08-12T17:32:12.076Z,99092.50
2022-08-12T17:35:00.567Z,99079.75
2022-08-12T17:37:29.477Z,99084.56
2022-08-12T17:40:12.180Z,99081.78
2022-08-12T17:42:48.126Z,99081.53
2022-08-12T17:45:20.541Z,99070.06
2022-08-12T17:48:01.783Z,99075.47
2022-08-12T17:50:38.039Z,99074.94
2022-08-12T17:53:08.063Z,99069.09
2022-08-12T17:55:47.662Z,99072.41
2022-08-12T17:58:35.798Z,99066.56
2022-08-12T18:01:11.084Z,99067.84
2022-08-12T18:04:05.113Z,99060.72
2022-08-12T18:06:35.813Z,99060.50
2022-08-12T18:09:09.011Z,99061.25
2022-08-12T18:12:06.158Z,99052.06
2022-08-12T18:14:37.958Z,99051.31
2022-08-12T18:17:08.635Z,99053.88
2022-08-12T18:20:05.723Z,99057.97
2022-08-12T18:22:39.474Z,99053.66
2022-08-12T18:26:13.143Z,99040.16
2022-08-12T18:28:16.126Z,99040.16
2022-08-12T18:30:53.469Z,99038.63
2022-08-12T18:33:27.346Z,99032.78
2022-08-12T18:35:56.995Z,99027.16
2022-08-12T18:38:28.744Z,99025.66
2022-08-12T18:41:20.908Z,99027.69
2022-08-12T18:44:01.012Z,99024.13
2022-08-12T18:46:53.984Z,99019.28
2022-08-12T18:49:32.040Z,99013.44
2022-08-12T18:52:08.211Z,99013.16
2022-08-12T18:54:48.830Z,99007.56
2022-08-12T18:58:07.736Z,99005.28
2022-08-12T19:00:22.859Z,99014.22
2022-08-12T19:02:54.333Z,99017.56
2022-08-12T19:05:53.485Z,99018.09
2022-08-12T19:08:16.099Z,99015.81
2022-08-12T19:10:50.221Z,99017.84
2022-08-12T19:13:38.906Z,99016.88
2022-08-12T19:16:12.145Z,99012.53
2022-08-12T19:18:44.652Z,99013.81
2022-08-12T19:21:16.673Z,99007.44
2022-08-12T19:24:09.292Z,99006.69
2022-08-12T19:26:39.243Z,99012.31
2022-08-12T19:29:08.794Z,99005.16
2022-08-12T19:31:57.656Z,99001.59
2022-08-12T19:38:02.520Z,99006.22
2022-08-12T19:40:32.715Z,99012.59
2022-08-12T19:43:19.990Z,99013.38
2022-08-12T19:45:52.423Z,99019.22
2022-08-12T19:48:24.122Z,99024.81
2022-08-12T19:50:57.691Z,99022.00
2022-08-12T19:53:27.414Z,99027.63
2022-08-12T19:55:58.035Z,99026.88
2022-08-12T19:58:27.731Z,99026.88
2022-08-12T20:00:56.625Z,99028.91
2022-08-12T20:03:40.411Z,99021.25
2022-08-12T20:06:21.591Z,99008.75
2022-08-12T20:08:56.723Z,99015.88
2022-08-12T20:12:13.916Z,99006.69
2022-08-12T20:14:20.977Z,99004.66
2022-08-12T20:16:57.886Z,99005.41
2022-08-12T20:20:15.166Z,99008.97
2022-08-12T20:22:29.760Z,99008.22
2022-08-12T20:25:07.873Z,99012.53
2022-08-12T20:28:05.260Z,99010.25
2022-08-12T20:30:37.665Z,99018.69
2022-08-12T20:33:18.323Z,99019.44
2022-08-12T20:36:07.025Z,99021.50
2022-08-12T20:38:41.252Z,99019.97
2022-08-12T20:41:16.765Z,99016.41
2022-08-12T20:43:58.085Z,99018.44
2022-08-12T20:46:32.562Z,99021.25
2022-08-12T20:49:14.598Z,99018.22
2022-08-12T20:51:55.155Z,99023.06
2022-08-12T20:54:32.440Z,99027.91
2022-08-12T20:57:07.504Z,99033.31
2022-08-12T20:59:49.668Z,99030.25
2022-08-12T21:02:24.596Z,99037.94
2022-08-12T21:05:20.341Z,99035.13
2022-08-12T21:07:52.057Z,99037.16
2022-08-12T21:10:21.909Z,99039.22
2022-08-12T21:12:55.400Z,99046.09
2022-08-12T21:15:30.698Z,99046.09
2022-08-12T21:18:28.757Z,99039.22
2022-08-12T21:20:59.887Z,99046.09
2022-08-12T21:23:30.831Z,99041.00
2022-08-12T21:26:12.255Z,99050.69
2022-08-12T21:28:56.681Z,99042.81
2022-08-12T21:32:37.361Z,99050.47
2022-08-12T21:34:22.129Z,99040.53
2022-08-12T21:36:54.973Z,99051.00
2022-08-12T21:39:35.285Z,99043.84
2022-08-12T21:42:07.436Z,99047.94
2022-08-12T21:45:46.083Z,99051.50
2022-08-12T21:47:28.840Z,99044.38
2022-08-12T21:50:03.269Z,99047.94
2022-08-12T21:52:40.453Z,99043.59
2022-08-12T21:55:17.845Z,99045.16
2022-08-12T21:57:53.389Z,99046.66
2022-08-12T22:00:31.956Z,99045.16
2022-08-12T22:04:02.336Z,99052.00
2022-08-12T22:06:30.782Z,99048.44
2022-08-12T22:09:16.670Z,99052.00
2022-08-12T22:11:58.609Z,99052.81
2022-08-12T22:14:30.172Z,99055.59
2022-08-12T22:17:00.497Z,99060.69
2022-08-12T22:19:34.847Z,99057.88
2022-08-12T22:22:06.184Z,99066.84
2022-08-12T22:24:35.935Z,99069.63
2022-08-12T22:27:31.875Z,99070.41
2022-08-12T22:30:20.039Z,99073.22
2022-08-12T22:32:55.054Z,99074.72
2022-08-12T22:35:56.028Z,99073.97
2022-08-12T22:38:29.036Z,99072.16
2022-08-12T22:41:35.724Z,99073.44
2022-08-12T22:44:29.075Z,99073.44
2022-08-12T22:47:53.419Z,99071.91
2022-08-12T22:50:09.522Z,99076.78
2022-08-12T22:53:18.032Z,99076.78
2022-08-12T22:55:59.251Z,99079.59
2022-08-12T22:58:34.704Z,99073.22
2022-08-12T23:01:03.956Z,99076.78
2022-08-12T23:03:49.037Z,99076.78
2022-08-12T23:06:22.257Z,99075.25
2022-08-12T23:08:52.188Z,99075.25
2022-08-12T23:11:23.781Z,99080.88
2022-08-12T23:14:01.750Z,99080.06
2022-08-12T23:16:34.428Z,99075.75
2022-08-12T23:19:22.923Z,99082.13
2022-08-12T23:22:06.166Z,99084.94
2022-08-12T23:24:56.189Z,99086.47
2022-08-12T23:27:52.336Z,99088.75
2022-08-12T23:30:31.114Z,99088.00
2022-08-12T23:33:02.397Z,99086.72
2022-08-12T23:35:58.865Z,99089.00
2022-08-12T23:38:32.871Z,99093.31
2022-08-12T23:41:04.339Z,99096.13
2022-08-12T23:43:40.811Z,99099.69
2022-08-12T23:46:19.129Z,99097.66
2022-08-12T23:48:50.369Z,99115.47
2022-08-12T23:51:32.076Z,99117.78
2022-08-12T23:54:08.162Z,99121.06
2022-08-12T23:56:39.537Z,99126.16
2022-08-12T23:59:14.010Z,99125.09
